createdAt,value
2019-02-10T00:00:22.405Z,994.82
2019-02-10T00:01:20.376Z,994.82
2019-02-10T00:02:20.367Z,994.76
2019-02-10T00:03:20.373Z,994.81
2019-02-10T00:04:20.652Z,994.80
2019-02-10T00:05:20.336Z,994.81
2019-02-10T00:06:24.842Z,994.80
2019-02-10T00:07:20.342Z,994.78
2019-02-10T00:08:20.310Z,994.88
2019-02-10T00:09:20.381Z,994.83
2019-02-10T00:10:20.319Z,994.73
2019-02-10T00:11:20.602Z,994.75
2019-02-10T00:12:20.293Z,994.80
2019-02-10T00:13:20.249Z,994.77
2019-02-10T00:14:20.255Z,994.70
2019-02-10T00:15:20.247Z,994.75
2019-02-10T00:16:20.275Z,994.78
2019-02-10T00:17:20.207Z,994.70
2019-02-10T00:18:20.196Z,994.72
2019-02-10T00:19:20.191Z,994.74
2019-02-10T00:20:20.176Z,994.71
2019-02-10T00:21:20.164Z,994.69
2019-02-10T00:22:20.204Z,994.68
2019-02-10T00:23:20.144Z,994.68
2019-02-10T00:24:20.439Z,994.57
2019-02-10T00:25:20.127Z,994.61
2019-02-10T00:26:20.126Z,994.63
2019-02-10T00:27:20.161Z,994.55
2019-02-10T00:28:20.134Z,994.49
2019-02-10T00:29:20.816Z,994.47
2019-02-10T00:30:20.069Z,994.42
2019-02-10T00:31:20.065Z,994.43
2019-02-10T00:32:20.047Z,994.47
2019-02-10T00:33:20.051Z,994.46
2019-02-10T00:34:20.114Z,994.41
2019-02-10T00:35:20.016Z,994.44
2019-02-10T00:36:22.353Z,994.41
2019-02-10T00:37:20.010Z,994.31
2019-02-10T00:38:20.031Z,994.32
2019-02-10T00:39:19.983Z,994.28
2019-02-10T00:40:19.989Z,994.27
2019-02-10T00:41:19.978Z,994.26
2019-02-10T00:42:19.945Z,994.19
2019-02-10T00:43:19.945Z,994.23
2019-02-10T00:44:19.925Z,994.18
2019-02-10T00:45:19.911Z,994.17
2019-02-10T00:46:19.928Z,994.18
2019-02-10T00:47:19.898Z,994.15
2019-02-10T00:48:20.333Z,994.16
2019-02-10T00:49:19.884Z,994.16
2019-02-10T00:50:19.858Z,994.16
2019-02-10T00:51:20.768Z,994.14
2019-02-10T00:52:19.907Z,994.08
2019-02-10T00:53:19.849Z,994.03
2019-02-10T00:54:19.825Z,994.05
2019-02-10T00:55:20.102Z,994.03
2019-02-10T00:56:19.795Z,994.00
2019-02-10T00:57:19.784Z,993.95
2019-02-10T00:58:19.807Z,994.03
2019-02-10T00:59:19.768Z,994.01
2019-02-10T01:00:19.766Z,993.99
2019-02-10T01:01:19.845Z,993.88
2019-02-10T01:02:20.155Z,993.89
2019-02-10T01:03:19.721Z,993.91
2019-02-10T01:04:19.737Z,993.91
2019-02-10T01:05:19.825Z,993.90
2019-02-10T01:06:19.709Z,993.92
2019-02-10T01:07:19.680Z,993.87
2019-02-10T01:08:19.669Z,993.81
2019-02-10T01:09:19.671Z,993.90
2019-02-10T01:10:19.719Z,993.85
2019-02-10T01:11:19.640Z,993.82
2019-02-10T01:12:19.628Z,993.82
2019-02-10T01:13:19.622Z,993.78
2019-02-10T01:14:19.606Z,993.81
2019-02-10T01:15:20.911Z,993.79
2019-02-10T01:16:19.617Z,993.77
2019-02-10T01:17:19.573Z,993.75
2019-02-10T01:18:19.563Z,993.74
2019-02-10T01:19:19.552Z,993.76
2019-02-10T01:20:19.553Z,993.75
2019-02-10T01:21:19.590Z,993.74
2019-02-10T01:22:19.826Z,993.74
2019-02-10T01:23:19.526Z,993.74
2019-02-10T01:24:19.521Z,993.72
2019-02-10T01:25:19.494Z,993.70
2019-02-10T01:26:19.481Z,993.66
2019-02-10T01:27:19.492Z,993.62
2019-02-10T01:28:19.611Z,993.62
2019-02-10T01:29:19.739Z,993.63
2019-02-10T01:30:19.444Z,993.65
2019-02-10T01:31:19.430Z,993.61
2019-02-10T01:32:19.470Z,993.64
2019-02-10T01:33:19.405Z,993.62
2019-02-10T01:34:19.448Z,993.64
2019-02-10T01:35:19.407Z,993.65
2019-02-10T01:36:19.660Z,993.56
2019-02-10T01:37:19.365Z,993.61
2019-02-10T01:38:19.360Z,993.59
2019-02-10T01:39:19.348Z,993.58
2019-02-10T01:40:19.365Z,993.57
2019-02-10T01:41:19.332Z,993.48
2019-02-10T01:42:19.311Z,993.49
2019-02-10T01:43:19.588Z,993.47
2019-02-10T01:44:19.290Z,993.49
2019-02-10T01:45:19.282Z,993.42
2019-02-10T01:46:19.324Z,993.33
2019-02-10T01:47:19.261Z,993.32
2019-02-10T01:48:19.251Z,993.32
2019-02-10T01:49:19.242Z,993.30
2019-02-10T01:50:20.553Z,993.23
2019-02-10T01:51:19.274Z,993.21
2019-02-10T01:52:19.256Z,993.11
2019-02-10T01:53:19.196Z,993.11
2019-02-10T01:54:19.187Z,993.03
2019-02-10T01:55:20.370Z,993.01
2019-02-10T01:56:19.183Z,992.95
2019-02-10T01:57:19.438Z,992.94
2019-02-10T01:58:19.176Z,992.90
2019-02-10T01:59:19.154Z,992.88
2019-02-10T02:00:19.136Z,992.89
2019-02-10T02:01:19.207Z,992.83
2019-02-10T02:02:19.130Z,992.81
2019-02-10T02:03:19.101Z,992.84
2019-02-10T02:04:19.941Z,992.87
2019-02-10T02:05:19.084Z,992.82
2019-02-10T02:06:19.065Z,992.76
2019-02-10T02:07:19.146Z,992.80
2019-02-10T02:08:19.040Z,992.84
2019-02-10T02:09:19.038Z,992.71
2019-02-10T02:10:19.050Z,992.62
2019-02-10T02:11:19.356Z,992.61
2019-02-10T02:12:18.999Z,992.60
2019-02-10T02:13:18.994Z,992.59
2019-02-10T02:14:19.795Z,992.55
2019-02-10T02:15:18.971Z,992.58
2019-02-10T02:16:19.889Z,992.53
2019-02-10T02:17:18.946Z,992.53
2019-02-10T02:18:19.097Z,992.44
2019-02-10T02:19:18.923Z,992.44
2019-02-10T02:20:18.913Z,992.48
2019-02-10T02:21:18.904Z,992.40
2019-02-10T02:22:18.956Z,992.43
2019-02-10T02:23:18.889Z,992.38
2019-02-10T02:24:21.214Z,992.43
2019-02-10T02:25:18.859Z,992.41
2019-02-10T02:26:18.848Z,992.35
2019-02-10T02:27:18.838Z,992.33
2019-02-10T02:28:18.954Z,992.28
2019-02-10T02:29:18.816Z,992.24
2019-02-10T02:30:18.836Z,992.17
2019-02-10T02:31:19.128Z,992.13
2019-02-10T02:32:18.814Z,992.14
2019-02-10T02:33:18.791Z,992.10
2019-02-10T02:34:18.821Z,992.14
2019-02-10T02:35:18.779Z,992.09
2019-02-10T02:36:18.794Z,992.09
2019-02-10T02:37:18.747Z,992.12
2019-02-10T02:38:19.066Z,992.10
2019-02-10T02:39:18.723Z,992.05
2019-02-10T02:40:18.852Z,992.08
2019-02-10T02:41:18.692Z,991.99
2019-02-10T02:42:18.687Z,992.07
2019-02-10T02:43:18.671Z,992.05
2019-02-10T02:44:18.666Z,992.03
2019-02-10T02:45:18.942Z,992.01
2019-02-10T02:46:18.707Z,991.98
2019-02-10T02:47:18.639Z,991.92
2019-02-10T02:48:18.625Z,991.90
2019-02-10T02:49:18.610Z,991.93
2019-02-10T02:50:18.630Z,991.89
2019-02-10T02:51:18.587Z,991.93
2019-02-10T02:52:18.903Z,991.87
2019-02-10T02:53:18.567Z,991.90
2019-02-10T02:54:18.557Z,991.85
2019-02-10T02:55:18.544Z,991.88
2019-02-10T02:56:18.540Z,991.82
2019-02-10T02:57:18.531Z,991.84
2019-02-10T02:58:18.593Z,991.81
2019-02-10T02:59:18.794Z,991.76
2019-02-10T03:01:34.200Z,991.71
2019-02-10T03:02:34.155Z,991.68
2019-02-10T03:03:34.211Z,991.67
2019-02-10T03:04:34.127Z,991.61
2019-02-10T03:05:34.115Z,991.60
2019-02-10T03:06:34.111Z,991.55
2019-02-10T03:07:34.094Z,991.50
2019-02-10T03:08:34.117Z,991.51
2019-02-10T03:09:34.125Z,991.47
2019-02-10T03:10:34.096Z,991.48
2019-02-10T03:11:35.225Z,991.45
2019-02-10T03:12:34.045Z,991.40
2019-02-10T03:13:34.035Z,991.35
2019-02-10T03:14:34.021Z,991.33
2019-02-10T03:15:34.457Z,991.32
2019-02-10T03:16:34.899Z,991.32
2019-02-10T03:17:33.993Z,991.28
2019-02-10T03:18:35.251Z,991.27
2019-02-10T03:19:35.009Z,991.27
2019-02-10T03:20:34.908Z,991.27
2019-02-10T03:21:34.439Z,991.26
2019-02-10T03:22:33.931Z,991.24
2019-02-10T03:23:36.925Z,991.29
2019-02-10T03:24:34.227Z,991.19
2019-02-10T03:25:35.872Z,991.20
2019-02-10T03:26:34.963Z,991.13
2019-02-10T03:27:33.928Z,991.14
2019-02-10T03:28:33.888Z,991.13
2019-02-10T03:29:34.402Z,991.12
2019-02-10T03:30:33.865Z,991.05
2019-02-10T03:31:34.762Z,991.05
2019-02-10T03:32:33.853Z,990.99
2019-02-10T03:33:33.991Z,990.97
2019-02-10T03:34:33.826Z,990.97
2019-02-10T03:35:33.822Z,990.96
2019-02-10T03:36:34.001Z,990.98
2019-02-10T03:37:34.405Z,990.92
2019-02-10T03:38:34.070Z,990.83
2019-02-10T03:39:33.828Z,990.78
2019-02-10T03:40:33.781Z,990.81
2019-02-10T03:41:34.380Z,990.76
2019-02-10T03:42:33.774Z,990.76
2019-02-10T03:43:34.141Z,990.76
2019-02-10T03:44:33.701Z,990.77
2019-02-10T03:45:34.871Z,990.78
2019-02-10T03:46:34.433Z,990.73
2019-02-10T03:47:33.660Z,990.67
2019-02-10T03:48:33.673Z,990.66
2019-02-10T03:49:34.389Z,990.57
2019-02-10T03:50:34.397Z,990.65
2019-02-10T03:51:33.962Z,990.48
2019-02-10T03:52:34.464Z,990.49
2019-02-10T03:53:33.608Z,990.38
2019-02-10T03:54:33.631Z,990.26
2019-02-10T03:55:33.567Z,990.22
2019-02-10T03:56:38.870Z,990.11
2019-02-10T03:57:33.929Z,990.08
2019-02-10T03:58:34.377Z,990.11
2019-02-10T03:59:34.386Z,990.13
2019-02-10T04:00:33.544Z,990.06
2019-02-10T04:01:33.534Z,990.09
2019-02-10T04:02:33.505Z,990.06
2019-02-10T04:03:34.868Z,990.03
2019-02-10T04:04:33.497Z,989.99
2019-02-10T04:05:33.482Z,989.93
2019-02-10T04:06:33.488Z,989.93
2019-02-10T04:07:36.169Z,989.96
2019-02-10T04:08:34.419Z,989.88
2019-02-10T04:09:34.550Z,989.84
2019-02-10T04:10:33.826Z,989.83
2019-02-10T04:11:33.408Z,989.84
2019-02-10T04:12:33.416Z,989.79
2019-02-10T04:13:33.419Z,989.80
2019-02-10T04:14:33.378Z,989.80
2019-02-10T04:15:33.443Z,989.75
2019-02-10T04:16:33.354Z,989.74
2019-02-10T04:17:33.364Z,989.77
2019-02-10T04:18:33.337Z,989.72
2019-02-10T04:19:33.898Z,989.71
2019-02-10T04:20:33.379Z,989.68
2019-02-10T04:21:33.441Z,989.62
2019-02-10T04:22:33.661Z,989.71
2019-02-10T04:23:34.842Z,989.71
2019-02-10T04:24:33.283Z,989.67
2019-02-10T04:25:33.254Z,989.76
2019-02-10T04:26:33.920Z,989.71
2019-02-10T04:27:33.362Z,989.70
2019-02-10T04:28:33.236Z,989.74
2019-02-10T04:29:34.232Z,989.75
2019-02-10T04:30:33.213Z,989.72
2019-02-10T04:31:33.226Z,989.71
2019-02-10T04:32:33.198Z,989.73
2019-02-10T04:33:33.254Z,989.67
2019-02-10T04:34:33.157Z,989.67
2019-02-10T04:35:33.150Z,989.59
2019-02-10T04:36:33.166Z,989.58
2019-02-10T04:37:33.127Z,989.52
2019-02-10T04:38:33.878Z,989.56
2019-02-10T04:39:33.142Z,989.47
2019-02-10T04:40:33.896Z,989.46
2019-02-10T04:41:33.906Z,989.40
2019-02-10T04:42:34.426Z,989.37
2019-02-10T04:43:33.102Z,989.34
2019-02-10T04:44:33.063Z,989.30
2019-02-10T04:45:33.127Z,989.22
2019-02-10T04:46:33.061Z,989.21
2019-02-10T04:47:33.894Z,989.21
2019-02-10T04:48:33.010Z,989.17
2019-02-10T04:49:33.299Z,989.10
2019-02-10T04:50:33.000Z,989.03
2019-02-10T04:51:33.059Z,988.97
2019-02-10T04:52:32.967Z,988.92
2019-02-10T04:53:32.968Z,988.84
2019-02-10T04:54:33.902Z,988.82
2019-02-10T04:55:32.938Z,988.74
2019-02-10T04:56:32.938Z,988.72
2019-02-10T04:57:32.996Z,988.62
2019-02-10T04:58:32.914Z,988.59
2019-02-10T04:59:32.924Z,988.59
2019-02-10T05:00:32.917Z,988.52
2019-02-10T05:01:33.872Z,988.51
2019-02-10T05:02:33.748Z,988.53
2019-02-10T05:03:33.032Z,988.48
2019-02-10T05:04:32.849Z,988.51
2019-02-10T05:05:32.848Z,988.45
2019-02-10T05:06:32.852Z,988.45
2019-02-10T05:07:32.810Z,988.51
2019-02-10T05:08:32.812Z,988.47
2019-02-10T05:09:32.979Z,988.47
2019-02-10T05:10:32.783Z,988.48
2019-02-10T05:11:32.780Z,988.47
2019-02-10T05:12:33.376Z,988.45
2019-02-10T05:13:33.379Z,988.50
2019-02-10T05:14:33.672Z,988.48
2019-02-10T05:15:32.773Z,988.47
2019-02-10T05:16:33.371Z,988.42
2019-02-10T05:17:32.715Z,988.40
2019-02-10T05:18:32.697Z,988.43
2019-02-10T05:19:32.685Z,988.41
2019-02-10T05:20:32.691Z,988.39
2019-02-10T05:21:33.001Z,988.37
2019-02-10T05:22:33.365Z,988.35
2019-02-10T05:23:32.653Z,988.30
2019-02-10T05:24:32.632Z,988.27
2019-02-10T05:25:32.721Z,988.24
2019-02-10T05:26:32.649Z,988.17
2019-02-10T05:27:32.680Z,988.15
2019-02-10T05:28:32.606Z,988.13
2019-02-10T05:29:32.619Z,988.13
2019-02-10T05:30:32.577Z,988.09
2019-02-10T05:31:32.624Z,988.06
2019-02-10T05:32:32.854Z,988.02
2019-02-10T05:33:32.605Z,987.95
2019-02-10T05:34:32.885Z,987.97
2019-02-10T05:35:32.596Z,987.92
2019-02-10T05:36:32.520Z,987.89
2019-02-10T05:37:32.508Z,987.88
2019-02-10T05:38:32.568Z,987.85
2019-02-10T05:39:32.585Z,987.79
2019-02-10T05:40:32.477Z,987.72
2019-02-10T05:41:32.467Z,987.74
2019-02-10T05:42:32.456Z,987.69
2019-02-10T05:43:32.598Z,987.66
2019-02-10T05:44:32.777Z,987.64
2019-02-10T05:45:32.679Z,987.56
2019-02-10T05:46:32.440Z,987.57
2019-02-10T05:47:32.400Z,987.46
2019-02-10T05:48:32.405Z,987.43
2019-02-10T05:49:32.377Z,987.44
2019-02-10T05:50:32.428Z,987.43
2019-02-10T05:51:32.691Z,987.41
2019-02-10T05:52:32.669Z,987.35
2019-02-10T05:53:32.354Z,987.33
2019-02-10T05:54:32.334Z,987.30
2019-02-10T05:55:32.314Z,987.28
2019-02-10T05:56:32.317Z,987.24
2019-02-10T05:57:32.485Z,987.23
2019-02-10T05:58:32.578Z,987.14
2019-02-10T05:59:32.275Z,987.21
2019-02-10T06:00:32.287Z,987.17
2019-02-10T06:01:32.274Z,987.15
2019-02-10T06:02:32.248Z,987.17
2019-02-10T06:03:32.316Z,987.07
2019-02-10T06:04:32.229Z,986.93
2019-02-10T06:05:32.656Z,986.90
2019-02-10T06:06:32.204Z,986.88
2019-02-10T06:07:32.873Z,986.81
2019-02-10T06:08:32.186Z,986.74
2019-02-10T06:09:32.496Z,986.73
2019-02-10T06:10:32.162Z,986.75
2019-02-10T06:11:32.160Z,986.67
2019-02-10T06:12:32.448Z,986.67
2019-02-10T06:13:32.139Z,986.65
2019-02-10T06:14:32.147Z,986.60
2019-02-10T06:15:32.186Z,986.53
2019-02-10T06:16:32.098Z,986.52
2019-02-10T06:17:32.100Z,986.39
2019-02-10T06:18:32.081Z,986.40
2019-02-10T06:19:32.422Z,986.33
2019-02-10T06:20:32.050Z,986.34
2019-02-10T06:21:32.117Z,986.31
2019-02-10T06:22:32.029Z,986.32
2019-02-10T06:23:32.045Z,986.22
2019-02-10T06:24:32.012Z,986.08
2019-02-10T06:25:31.997Z,986.01
2019-02-10T06:26:31.997Z,985.97
2019-02-10T06:27:32.052Z,985.98
2019-02-10T06:28:31.963Z,985.94
2019-02-10T06:29:31.976Z,985.92
2019-02-10T06:30:31.970Z,985.91
2019-02-10T06:31:31.944Z,985.77
2019-02-10T06:32:33.235Z,985.76
2019-02-10T06:33:31.998Z,985.77
2019-02-10T06:34:31.898Z,985.75
2019-02-10T06:35:31.911Z,985.63
2019-02-10T06:36:31.900Z,985.60
2019-02-10T06:37:31.907Z,985.60
2019-02-10T06:38:31.892Z,985.53
2019-02-10T06:39:32.360Z,985.58
2019-02-10T06:40:31.852Z,985.44
2019-02-10T06:41:31.836Z,985.39
2019-02-10T06:42:31.821Z,985.35
2019-02-10T06:43:31.810Z,985.33
2019-02-10T06:44:31.806Z,985.27
2019-02-10T06:45:32.727Z,985.28
2019-02-10T06:46:32.057Z,985.23
2019-02-10T06:47:31.784Z,985.21
2019-02-10T06:48:31.761Z,985.19
2019-02-10T06:49:31.748Z,985.12
2019-02-10T06:50:31.750Z,985.14
2019-02-10T06:51:31.957Z,985.08
2019-02-10T06:52:31.733Z,985.02
2019-02-10T06:53:32.002Z,984.98
2019-02-10T06:54:31.682Z,984.96
2019-02-10T06:55:31.687Z,984.94
2019-02-10T06:56:31.661Z,984.91
2019-02-10T06:57:31.990Z,984.81
2019-02-10T06:58:31.701Z,984.85
2019-02-10T06:59:31.654Z,984.72
2019-02-10T07:00:31.929Z,984.73
2019-02-10T07:01:31.618Z,984.65
2019-02-10T07:02:31.619Z,984.64
2019-02-10T07:03:31.666Z,984.58
2019-02-10T07:04:31.587Z,984.55
2019-02-10T07:05:31.575Z,984.51
2019-02-10T07:06:31.557Z,984.52
2019-02-10T07:07:31.881Z,984.44
2019-02-10T07:08:32.359Z,984.41
2019-02-10T07:09:31.580Z,984.40
2019-02-10T07:10:31.560Z,984.37
2019-02-10T07:11:31.522Z,984.42
2019-02-10T07:12:31.498Z,984.33
2019-02-10T07:13:31.496Z,984.36
2019-02-10T07:14:31.784Z,984.32
2019-02-10T07:15:31.550Z,984.28
2019-02-10T07:16:31.470Z,984.24
2019-02-10T07:17:31.474Z,984.23
2019-02-10T07:18:31.441Z,984.22
2019-02-10T07:19:31.426Z,984.23
2019-02-10T07:20:31.440Z,984.14
2019-02-10T07:21:31.762Z,984.09
2019-02-10T07:22:31.402Z,984.11
2019-02-10T07:23:31.399Z,984.04
2019-02-10T07:24:31.383Z,984.02
2019-02-10T07:25:31.374Z,983.92
2019-02-10T07:26:31.358Z,983.85
2019-02-10T07:27:31.395Z,983.88
2019-02-10T07:28:31.639Z,983.77
2019-02-10T07:29:31.324Z,983.78
2019-02-10T07:30:31.320Z,983.77
2019-02-10T07:31:31.300Z,983.75
2019-02-10T07:32:31.322Z,983.68
2019-02-10T07:33:32.133Z,983.68
2019-02-10T07:34:31.556Z,983.67
2019-02-10T07:35:31.284Z,983.59
2019-02-10T07:36:31.274Z,983.60
2019-02-10T07:37:31.236Z,983.57
2019-02-10T07:38:38.323Z,983.53
2019-02-10T07:39:32.294Z,983.56
2019-02-10T07:40:31.203Z,983.50
2019-02-10T07:41:31.224Z,983.52
2019-02-10T07:42:31.190Z,983.45
2019-02-10T07:43:31.190Z,983.44
2019-02-10T07:44:31.164Z,983.35
2019-02-10T07:45:31.213Z,983.40
2019-02-10T07:46:31.529Z,983.35
2019-02-10T07:47:31.131Z,983.32
2019-02-10T07:48:31.140Z,983.28
2019-02-10T07:49:31.118Z,983.24
2019-02-10T07:50:31.096Z,983.25
2019-02-10T07:51:31.350Z,983.23
2019-02-10T07:52:31.099Z,983.19
2019-02-10T07:53:31.086Z,983.23
2019-02-10T07:54:32.876Z,983.20
2019-02-10T07:55:31.043Z,983.14
2019-02-10T07:56:31.025Z,983.12
2019-02-10T07:57:32.004Z,983.09
2019-02-10T07:58:31.358Z,983.07
2019-02-10T07:59:31.002Z,983.04
2019-02-10T08:00:32.136Z,983.04
2019-02-10T08:01:31.000Z,983.03
2019-02-10T08:02:30.982Z,982.96
2019-02-10T08:03:31.048Z,982.97
2019-02-10T08:04:30.979Z,982.95
2019-02-10T08:05:32.277Z,982.88
2019-02-10T08:06:30.948Z,982.89
2019-02-10T08:07:30.940Z,982.81
2019-02-10T08:08:30.924Z,982.75
2019-02-10T08:09:31.385Z,982.69
2019-02-10T08:10:30.886Z,982.73
2019-02-10T08:11:30.889Z,982.66
2019-02-10T08:12:31.171Z,982.66
2019-02-10T08:13:30.861Z,982.65
2019-02-10T08:14:30.838Z,982.61
2019-02-10T08:15:30.921Z,982.59
2019-02-10T08:16:30.838Z,982.57
2019-02-10T08:17:30.821Z,982.56
2019-02-10T08:18:30.808Z,982.52
2019-02-10T08:19:30.799Z,982.45
2019-02-10T08:20:30.801Z,982.42
2019-02-10T08:21:31.114Z,982.40
2019-02-10T08:22:30.756Z,982.39
2019-02-10T08:23:30.752Z,982.36
2019-02-10T08:24:30.745Z,982.29
2019-02-10T08:25:31.180Z,982.27
2019-02-10T08:26:30.743Z,982.23
2019-02-10T08:27:30.879Z,982.12
2019-02-10T08:28:30.685Z,982.09
2019-02-10T08:29:31.361Z,982.00
2019-02-10T08:30:30.697Z,981.96
2019-02-10T08:31:30.667Z,981.96
2019-02-10T08:32:31.021Z,981.88
2019-02-10T08:33:30.691Z,981.88
2019-02-10T08:34:30.628Z,981.86
2019-02-10T08:35:30.610Z,981.82
2019-02-10T08:36:30.614Z,981.79
2019-02-10T08:37:30.604Z,981.77
2019-02-10T08:38:30.600Z,981.78
2019-02-10T08:39:31.339Z,981.68
2019-02-10T08:40:31.396Z,981.64
2019-02-10T08:41:31.350Z,981.61
2019-02-10T08:42:30.543Z,981.57
2019-02-10T08:43:30.540Z,981.58
2019-02-10T08:44:30.533Z,981.55
2019-02-10T08:45:30.795Z,981.52
2019-02-10T08:46:30.824Z,981.44
2019-02-10T08:47:33.816Z,981.46
2019-02-10T08:48:30.476Z,981.44
2019-02-10T08:49:30.463Z,981.47
2019-02-10T08:50:30.460Z,981.40
2019-02-10T08:51:30.548Z,981.37
2019-02-10T08:52:30.427Z,981.38
2019-02-10T08:53:30.747Z,981.40
2019-02-10T08:54:30.475Z,981.31
2019-02-10T08:55:30.410Z,981.34
2019-02-10T08:56:31.359Z,981.33
2019-02-10T08:57:30.763Z,981.29
2019-02-10T08:58:30.406Z,981.27
2019-02-10T08:59:30.358Z,981.17
2019-02-10T09:00:30.678Z,981.08
2019-02-10T09:01:30.354Z,981.01
2019-02-10T09:02:30.327Z,981.00
2019-02-10T09:03:30.458Z,981.01
2019-02-10T09:04:30.357Z,981.01
2019-02-10T09:05:30.370Z,980.92
2019-02-10T09:06:30.298Z,980.89
2019-02-10T09:07:30.672Z,980.85
2019-02-10T09:08:30.283Z,980.83
2019-02-10T09:09:30.394Z,980.83
2019-02-10T09:10:30.270Z,980.79
2019-02-10T09:11:30.253Z,980.80
2019-02-10T09:12:30.228Z,980.74
2019-02-10T09:13:30.220Z,980.72
2019-02-10T09:14:30.518Z,980.81
2019-02-10T09:15:30.265Z,980.77
2019-02-10T09:16:30.874Z,980.69
2019-02-10T09:17:30.175Z,980.54
2019-02-10T09:18:30.158Z,980.49
2019-02-10T09:19:30.150Z,980.55
2019-02-10T09:20:30.154Z,980.49
2019-02-10T09:21:30.584Z,980.52
2019-02-10T09:22:30.112Z,980.48
2019-02-10T09:23:30.884Z,980.50
2019-02-10T09:24:30.138Z,980.49
2019-02-10T09:25:30.115Z,980.51
2019-02-10T09:26:30.859Z,980.45
2019-02-10T09:27:30.168Z,980.41
2019-02-10T09:28:30.554Z,980.35
2019-02-10T09:29:30.859Z,980.32
2019-02-10T09:30:30.058Z,980.29
2019-02-10T09:31:30.035Z,980.31
2019-02-10T09:32:30.026Z,980.32
2019-02-10T09:33:30.088Z,980.35
2019-02-10T09:34:30.871Z,980.27
2019-02-10T09:35:30.417Z,980.25
2019-02-10T09:36:29.988Z,980.25
2019-02-10T09:37:29.968Z,980.19
2019-02-10T09:38:29.964Z,980.15
2019-02-10T09:39:30.045Z,980.05
2019-02-10T09:40:29.964Z,979.94
2019-02-10T09:41:30.852Z,979.98
2019-02-10T09:42:30.225Z,980.03
2019-02-10T09:43:29.925Z,980.11
2019-02-10T09:44:29.914Z,980.18
2019-02-10T09:45:29.955Z,980.16
2019-02-10T09:46:29.889Z,980.11
2019-02-10T09:47:29.888Z,980.12
2019-02-10T09:48:29.853Z,979.95
2019-02-10T09:49:30.154Z,979.91
2019-02-10T09:50:29.841Z,979.82
2019-02-10T09:51:29.964Z,979.76
2019-02-10T09:52:29.844Z,979.82
2019-02-10T09:53:29.804Z,979.76
2019-02-10T09:54:30.364Z,979.71
2019-02-10T09:55:29.901Z,979.69
2019-02-10T09:56:29.915Z,979.75
2019-02-10T09:57:29.836Z,979.74
2019-02-10T09:58:29.798Z,979.80
2019-02-10T09:59:29.828Z,979.80
2019-02-10T10:00:30.329Z,979.83
2019-02-10T10:01:30.034Z,979.77
2019-02-10T10:02:29.728Z,979.78
2019-02-10T10:03:29.743Z,979.76
2019-02-10T10:04:29.679Z,979.71
2019-02-10T10:05:29.710Z,979.71
2019-02-10T10:06:29.661Z,979.67
2019-02-10T10:07:29.993Z,979.63
2019-02-10T10:08:29.680Z,979.67
2019-02-10T10:09:29.682Z,979.65
2019-02-10T10:10:29.635Z,979.61
2019-02-10T10:11:29.620Z,979.55
2019-02-10T10:12:29.615Z,979.55
2019-02-10T10:13:29.596Z,979.61
2019-02-10T10:14:30.933Z,979.63
2019-02-10T10:15:29.815Z,979.65
2019-02-10T10:16:29.576Z,979.63
2019-02-10T10:17:31.079Z,979.64
2019-02-10T10:18:29.547Z,979.57
2019-02-10T10:19:29.819Z,979.53
2019-02-10T10:20:29.528Z,979.67
2019-02-10T10:21:29.565Z,979.56
2019-02-10T10:22:29.503Z,979.64
2019-02-10T10:23:29.498Z,979.48
2019-02-10T10:24:29.475Z,979.48
2019-02-10T10:25:29.534Z,979.41
2019-02-10T10:26:29.453Z,979.44
2019-02-10T10:27:30.400Z,979.41
2019-02-10T10:28:29.443Z,979.40
2019-02-10T10:29:29.440Z,979.49
2019-02-10T10:30:29.415Z,979.32
2019-02-10T10:31:29.397Z,979.33
2019-02-10T10:32:29.426Z,979.36
2019-02-10T10:33:31.856Z,979.32
2019-02-10T10:34:29.368Z,979.28
2019-02-10T10:35:29.356Z,979.25
2019-02-10T10:36:29.380Z,979.25
2019-02-10T10:37:30.800Z,979.20
2019-02-10T10:38:29.774Z,979.19
2019-02-10T10:39:29.404Z,979.19
2019-02-10T10:40:29.291Z,979.26
2019-02-10T10:41:29.289Z,979.09
2019-02-10T10:42:29.370Z,979.10
2019-02-10T10:43:29.262Z,979.11
2019-02-10T10:44:29.272Z,979.00
2019-02-10T10:45:29.308Z,978.95
2019-02-10T10:46:29.239Z,978.99
2019-02-10T10:47:29.232Z,978.96
2019-02-10T10:48:29.232Z,978.96
2019-02-10T10:49:29.207Z,978.88
2019-02-10T10:50:29.492Z,978.83
2019-02-10T10:51:29.340Z,978.98
2019-02-10T10:52:29.161Z,978.89
2019-02-10T10:53:29.164Z,978.89
2019-02-10T10:54:29.164Z,978.93
2019-02-10T10:55:29.146Z,979.00
2019-02-10T10:56:29.147Z,979.07
2019-02-10T10:57:29.329Z,978.87
2019-02-10T10:58:29.293Z,978.90
2019-02-10T10:59:29.099Z,978.94
2019-02-10T11:00:29.874Z,978.95
2019-02-10T11:01:29.071Z,978.85
2019-02-10T11:02:29.524Z,978.93
2019-02-10T11:03:29.144Z,978.93
2019-02-10T11:04:29.043Z,978.93
2019-02-10T11:05:29.052Z,978.83
2019-02-10T11:06:29.056Z,978.89
2019-02-10T11:07:29.020Z,978.81
2019-02-10T11:08:29.024Z,978.85
2019-02-10T11:09:35.431Z,978.90
2019-02-10T11:10:30.014Z,978.83
2019-02-10T11:11:28.987Z,978.77
2019-02-10T11:12:28.951Z,978.80
2019-02-10T11:13:28.946Z,978.77
2019-02-10T11:14:28.953Z,978.86
2019-02-10T11:15:29.038Z,978.86
2019-02-10T11:16:28.919Z,978.80
2019-02-10T11:17:28.905Z,978.83
2019-02-10T11:18:29.870Z,978.75
2019-02-10T11:19:28.890Z,978.74
2019-02-10T11:20:29.800Z,978.77
2019-02-10T11:21:29.408Z,978.82
2019-02-10T11:22:29.252Z,978.84
2019-02-10T11:23:28.853Z,978.75
2019-02-10T11:24:29.027Z,978.73
2019-02-10T11:25:28.823Z,978.74
2019-02-10T11:26:28.844Z,978.70
2019-02-10T11:27:29.350Z,978.69
2019-02-10T11:28:28.792Z,978.66
2019-02-10T11:29:29.087Z,978.69
2019-02-10T11:30:29.367Z,978.65
2019-02-10T11:31:29.365Z,978.68
2019-02-10T11:32:28.738Z,978.67
2019-02-10T11:33:28.770Z,978.61
2019-02-10T11:34:28.719Z,978.53
2019-02-10T11:35:28.737Z,978.57
2019-02-10T11:36:29.002Z,978.51
2019-02-10T11:37:28.694Z,978.41
2019-02-10T11:38:28.689Z,978.46
2019-02-10T11:39:28.721Z,978.49
2019-02-10T11:40:28.659Z,978.42
2019-02-10T11:41:28.649Z,978.38
2019-02-10T11:42:28.628Z,978.53
2019-02-10T11:43:29.992Z,978.42
2019-02-10T11:44:28.668Z,978.39
2019-02-10T11:45:28.807Z,978.33
2019-02-10T11:46:28.633Z,978.28
2019-02-10T11:47:29.341Z,978.34
2019-02-10T11:48:28.577Z,978.30
2019-02-10T11:49:28.573Z,978.27
2019-02-10T11:50:29.798Z,978.23
2019-02-10T11:51:28.586Z,978.19
2019-02-10T11:52:28.565Z,978.21
2019-02-10T11:53:28.535Z,978.18
2019-02-10T11:54:28.533Z,978.16
2019-02-10T11:55:28.510Z,978.15
2019-02-10T11:56:28.514Z,978.11
2019-02-10T11:57:28.924Z,978.12
2019-02-10T11:58:28.489Z,978.08
2019-02-10T11:59:28.465Z,978.06
2019-02-10T12:00:28.460Z,978.08
2019-02-10T12:01:28.438Z,978.09
2019-02-10T12:02:28.451Z,978.05
2019-02-10T12:03:28.568Z,978.03
2019-02-10T12:04:28.911Z,977.99
2019-02-10T12:05:28.401Z,977.96
2019-02-10T12:06:28.371Z,977.94
2019-02-10T12:07:29.333Z,977.99
2019-02-10T12:08:35.577Z,977.90
2019-02-10T12:09:29.374Z,977.82
2019-02-10T12:10:28.335Z,977.88
2019-02-10T12:11:28.715Z,977.83
2019-02-10T12:12:28.327Z,977.80
2019-02-10T12:13:33.790Z,977.81
2019-02-10T12:14:28.306Z,977.83
2019-02-10T12:15:28.299Z,977.84
2019-02-10T12:16:28.263Z,977.77
2019-02-10T12:17:28.302Z,977.84
2019-02-10T12:18:28.796Z,977.77
2019-02-10T12:19:28.244Z,977.77
2019-02-10T12:20:28.267Z,977.74
2019-02-10T12:21:29.200Z,977.80
2019-02-10T12:22:28.226Z,977.67
2019-02-10T12:23:28.884Z,977.61
2019-02-10T12:24:28.196Z,977.63
2019-02-10T12:25:28.636Z,977.63
2019-02-10T12:26:28.200Z,977.67
2019-02-10T12:27:28.398Z,977.58
2019-02-10T12:28:28.129Z,977.57
2019-02-10T12:29:28.137Z,977.56